createdAt,value
2023-05-19T00:01:32.106Z,9.42
2023-05-19T00:06:34.490Z,9.34
2023-05-19T00:11:40.944Z,9.26
2023-05-19T00:16:48.850Z,9.20
2023-05-19T00:21:55.287Z,9.11
2023-05-19T00:27:00.083Z,9.05
2023-05-19T00:32:04.291Z,8.98
2023-05-19T00:37:08.557Z,8.92
2023-05-19T00:42:12.454Z,8.81
2023-05-19T00:47:14.180Z,8.75
2023-05-19T00:52:15.909Z,8.69
2023-05-19T00:57:22.918Z,8.64
2023-05-19T01:02:32.457Z,8.61
2023-05-19T01:07:34.549Z,8.50
2023-05-19T01:12:37.575Z,8.44
2023-05-19T01:18:12.099Z,8.39
2023-05-19T01:24:09.206Z,8.35
2023-05-19T01:29:21.993Z,8.27
2023-05-19T01:34:26.148Z,8.20
2023-05-19T01:39:28.496Z,8.12
2023-05-19T01:44:33.592Z,8.13
2023-05-19T01:49:37.485Z,8.03
2023-05-19T01:54:42.225Z,7.97
2023-05-19T02:00:00.768Z,7.97
2023-05-19T02:05:14.564Z,8.03
2023-05-19T02:10:25.822Z,8.05
2023-05-19T02:15:38.686Z,8.03
2023-05-19T02:20:42.971Z,8.00
2023-05-19T02:25:50.184Z,7.97
2023-05-19T02:30:51.989Z,7.92
2023-05-19T02:35:53.713Z,7.88
2023-05-19T02:40:58.662Z,7.81
2023-05-19T02:46:05.452Z,7.74
2023-05-19T02:51:07.184Z,7.67
2023-05-19T02:56:08.990Z,7.64
2023-05-19T03:01:12.853Z,7.60
2023-05-19T03:06:18.078Z,7.56
2023-05-19T03:11:19.960Z,7.53
2023-05-19T03:16:22.057Z,7.50
2023-05-19T03:21:26.327Z,7.45
2023-05-19T03:26:29.379Z,7.37
2023-05-19T03:31:34.936Z,7.34
2023-05-19T03:36:39.414Z,7.30
2023-05-19T03:41:47.900Z,7.42
2023-05-19T03:46:52.629Z,7.36
2023-05-19T03:52:17.452Z,7.31
2023-05-19T03:57:36.347Z,7.28
2023-05-19T04:02:38.357Z,7.29
2023-05-19T04:07:43.063Z,7.32
2023-05-19T04:12:44.793Z,7.35
2023-05-19T04:17:46.585Z,7.41
2023-05-19T04:22:48.359Z,7.50
2023-05-19T04:27:50.080Z,7.56
2023-05-19T04:32:52.109Z,7.67
2023-05-19T04:37:54.442Z,7.78
2023-05-19T04:43:02.225Z,7.91
2023-05-19T04:48:05.341Z,8.01
2023-05-19T04:53:07.285Z,8.17
2023-05-19T04:58:11.562Z,8.29
2023-05-19T05:03:16.491Z,8.39
2023-05-19T05:08:24.622Z,8.52
2023-05-19T05:13:32.930Z,8.64
2023-05-19T05:18:36.655Z,8.77
2023-05-19T05:23:41.720Z,8.87
2023-05-19T05:28:47.129Z,8.93
2023-05-19T05:33:49.927Z,8.99
2023-05-19T05:38:55.386Z,9.05
2023-05-19T05:43:58.266Z,9.13
2023-05-19T05:49:00.528Z,9.20
2023-05-19T05:54:08.827Z,9.32
2023-05-19T05:59:15.253Z,9.42
2023-05-19T06:04:22.709Z,9.51
2023-05-19T06:09:24.605Z,9.61
2023-05-19T06:14:29.201Z,9.70
2023-05-19T06:20:00.806Z,9.84
2023-05-19T06:25:03.632Z,9.98
2023-05-19T06:30:08.592Z,10.15
2023-05-19T06:35:18.652Z,10.28
2023-05-19T06:40:20.737Z,10.45
2023-05-19T06:45:27.503Z,10.62
2023-05-19T06:50:34.352Z,11.07
2023-05-19T06:55:47.189Z,11.14
2023-05-19T07:00:58.440Z,11.21
2023-05-19T07:06:07.115Z,11.26
2023-05-19T07:11:15.498Z,11.28
2023-05-19T07:16:18.445Z,11.21
2023-05-19T07:21:20.566Z,11.16
2023-05-19T07:26:23.853Z,11.30
2023-05-19T07:31:26.156Z,11.45
2023-05-19T07:36:27.983Z,11.83
2023-05-19T07:41:32.551Z,12.13
2023-05-19T07:46:35.976Z,12.34
2023-05-19T07:51:37.767Z,12.52
2023-05-19T07:56:44.365Z,12.66
2023-05-19T08:01:48.726Z,12.72
2023-05-19T08:06:52.329Z,12.82
2023-05-19T08:11:54.204Z,12.91
2023-05-19T08:16:56.450Z,13.04
2023-05-19T08:22:01.121Z,13.06
2023-05-19T08:27:05.773Z,13.13
2023-05-19T08:32:12.966Z,13.18
2023-05-19T08:37:15.096Z,13.33
2023-05-19T08:42:17.404Z,13.47
2023-05-19T08:47:19.817Z,13.56
2023-05-19T08:52:30.636Z,13.65
2023-05-19T08:57:34.803Z,13.83
2023-05-19T09:02:50.468Z,13.95
2023-05-19T09:08:03.525Z,13.98
2023-05-19T09:13:09.821Z,14.15
2023-05-19T09:18:17.408Z,14.24
2023-05-19T09:23:20.969Z,14.36
2023-05-19T09:28:30.726Z,14.62
2023-05-19T09:33:37.452Z,14.78
2023-05-19T09:38:41.867Z,14.89
2023-05-19T09:43:43.835Z,15.01
2023-05-19T09:48:47.878Z,15.10
2023-05-19T09:53:49.680Z,15.12
2023-05-19T09:58:52.483Z,15.37
2023-05-19T10:03:57.260Z,15.62
2023-05-19T10:08:59.227Z,15.76
2023-05-19T10:14:03.411Z,15.92
2023-05-19T10:19:09.530Z,15.98
2023-05-19T10:24:13.848Z,16.05
2023-05-19T10:29:20.908Z,16.24
2023-05-19T10:34:34.799Z,16.28
2023-05-19T10:39:39.721Z,16.51
2023-05-19T10:45:00.901Z,16.70
2023-05-19T10:50:04.735Z,16.84
2023-05-19T10:55:15.690Z,16.96
2023-05-19T11:00:28.330Z,17.08
2023-05-19T11:05:30.249Z,17.22
2023-05-19T11:10:32.211Z,17.45
2023-05-19T11:15:40.842Z,17.53
2023-05-19T11:20:42.639Z,17.71
2023-05-19T11:25:50.821Z,17.81
2023-05-19T11:30:54.690Z,17.93
2023-05-19T11:35:59.075Z,18.06
2023-05-19T11:41:01.517Z,18.33
2023-05-19T11:46:03.424Z,18.66
2023-05-19T11:51:06.821Z,18.94
2023-05-19T11:56:14.881Z,19.27
2023-05-19T12:01:17.307Z,20.37
2023-05-19T12:06:19.332Z,21.37
2023-05-19T12:11:21.743Z,21.88
2023-05-19T12:16:23.597Z,21.97
2023-05-19T12:21:34.269Z,22.60
2023-05-19T12:26:37.556Z,23.88
2023-05-19T12:31:39.740Z,25.39
2023-05-19T12:36:46.568Z,25.74
2023-05-19T12:41:48.342Z,26.68
2023-05-19T12:46:52.269Z,26.80
2023-05-19T12:51:56.218Z,26.49
2023-05-19T12:56:58.780Z,26.09
2023-05-19T13:02:03.635Z,27.49
2023-05-19T13:07:10.285Z,29.10
2023-05-19T13:12:14.553Z,30.07
2023-05-19T13:17:16.343Z,30.36
2023-05-19T13:22:18.407Z,30.15
2023-05-19T13:27:20.218Z,30.26
2023-05-19T13:32:24.183Z,31.07
2023-05-19T13:37:28.375Z,31.04
2023-05-19T13:42:30.214Z,31.11
2023-05-19T13:47:36.913Z,31.69
2023-05-19T13:52:38.655Z,32.39
2023-05-19T13:57:42.170Z,32.75
2023-05-19T14:02:48.318Z,33.45
2023-05-19T14:07:52.560Z,34.39
2023-05-19T14:13:25.882Z,35.41
2023-05-19T14:18:16.727Z,35.47
2023-05-19T14:23:20.088Z,35.46
2023-05-19T14:28:21.828Z,35.78
2023-05-19T14:33:24.041Z,35.56
2023-05-19T14:38:27.583Z,35.95
2023-05-19T14:43:32.452Z,36.89
2023-05-19T14:48:36.528Z,37.40
2023-05-19T14:53:38.324Z,37.15
2023-05-19T14:58:44.978Z,37.18
2023-05-19T15:03:51.572Z,37.24
2023-05-19T15:08:55.753Z,37.43
2023-05-19T15:14:08.137Z,37.73
2023-05-19T15:19:12.567Z,38.24
2023-05-19T15:24:16.921Z,38.48
2023-05-19T15:29:20.919Z,38.79
2023-05-19T15:34:25.552Z,38.78
2023-05-19T15:39:29.604Z,38.34
2023-05-19T15:44:31.388Z,38.62
2023-05-19T15:49:33.310Z,38.84
2023-05-19T15:54:35.050Z,38.58
2023-05-19T15:59:39.318Z,38.43
2023-05-19T16:04:44.045Z,38.27
2023-05-19T16:09:45.950Z,37.42
2023-05-19T16:14:52.973Z,37.67
2023-05-19T16:19:59.769Z,38.25
2023-05-19T16:25:04.370Z,37.96
2023-05-19T16:30:06.838Z,37.46
2023-05-19T16:35:11.046Z,37.08
2023-05-19T16:40:13.192Z,36.73
2023-05-19T16:45:17.687Z,36.56
2023-05-19T16:50:19.437Z,36.21
2023-05-19T16:55:22.676Z,35.73
2023-05-19T17:00:24.540Z,35.47
2023-05-19T17:05:29.098Z,34.43
2023-05-19T17:10:31.050Z,30.07
2023-05-19T17:15:33.894Z,26.80
2023-05-19T17:20:40.324Z,24.71
2023-05-19T17:25:42.126Z,23.53
2023-05-19T17:30:43.911Z,22.77
2023-05-19T17:35:45.730Z,22.06
2023-05-19T17:40:47.752Z,21.57
2023-05-19T17:45:54.415Z,21.12
2023-05-19T17:50:59.586Z,20.83
2023-05-19T17:56:07.386Z,20.92
2023-05-19T18:01:09.506Z,21.05
2023-05-19T18:06:12.033Z,20.87
2023-05-19T18:11:16.121Z,20.44
2023-05-19T18:16:20.323Z,20.25
2023-05-19T18:21:24.331Z,20.08
2023-05-19T18:26:26.155Z,19.64
2023-05-19T18:31:30.123Z,19.22
2023-05-19T18:36:32.012Z,18.86
2023-05-19T18:41:34.282Z,18.70
2023-05-19T18:46:38.394Z,18.50
2023-05-19T18:51:40.195Z,18.40
2023-05-19T18:56:44.199Z,18.28
2023-05-19T19:01:46.055Z,18.13
2023-05-19T19:06:48.420Z,17.86
2023-05-19T19:11:52.474Z,18.33
2023-05-19T19:16:56.643Z,17.61
2023-05-19T19:21:58.563Z,17.29
2023-05-19T19:27:02.727Z,17.05
2023-05-19T19:32:07.310Z,16.82
2023-05-19T19:37:09.143Z,16.59
2023-05-19T19:42:10.861Z,16.51
2023-05-19T19:47:12.750Z,16.46
2023-05-19T19:52:17.533Z,16.46
2023-05-19T19:57:22.080Z,16.42
2023-05-19T20:02:26.462Z,16.27
2023-05-19T20:07:28.948Z,16.06
2023-05-19T20:12:35.149Z,15.83
2023-05-19T20:17:37.431Z,15.72
2023-05-19T20:22:41.564Z,15.60
2023-05-19T20:27:45.918Z,15.48
2023-05-19T20:32:48.578Z,15.32
2023-05-19T20:37:50.327Z,15.19
2023-05-19T20:42:52.208Z,15.15
2023-05-19T20:47:53.975Z,15.07
2023-05-19T20:52:55.713Z,14.97
2023-05-19T20:57:57.477Z,14.93
2023-05-19T21:03:01.582Z,14.86
2023-05-19T21:08:03.647Z,14.77
2023-05-19T21:13:07.691Z,14.67
2023-05-19T21:18:11.704Z,14.50
2023-05-19T21:23:20.688Z,14.37
2023-05-19T21:28:25.004Z,14.26
2023-05-19T21:33:26.805Z,14.14
2023-05-19T21:38:28.549Z,13.98
2023-05-19T21:43:30.319Z,13.89
2023-05-19T21:48:34.306Z,13.86
2023-05-19T21:53:38.402Z,13.80
2023-05-19T21:58:40.109Z,13.71
2023-05-19T22:03:42.080Z,13.65
2023-05-19T22:08:43.868Z,13.56
2023-05-19T22:13:50.494Z,13.53
2023-05-19T22:18:55.349Z,13.39
2023-05-19T22:23:57.095Z,13.35
2023-05-19T22:29:01.042Z,13.27
2023-05-19T22:34:05.214Z,13.24
2023-05-19T22:39:09.374Z,13.16
2023-05-19T22:44:15.399Z,13.17
2023-05-19T22:49:17.253Z,13.27
2023-05-19T22:54:18.957Z,13.38
2023-05-19T22:59:25.333Z,13.39
2023-05-19T23:04:30.229Z,13.46
2023-05-19T23:09:36.313Z,13.48
2023-05-19T23:14:40.347Z,13.47
2023-05-19T23:19:42.119Z,13.44
2023-05-19T23:24:43.805Z,13.37
2023-05-19T23:29:51.244Z,13.32
2023-05-19T23:34:55.029Z,13.31
2023-05-19T23:39:59.713Z,13.30
2023-05-19T23:45:01.437Z,13.28
2023-05-19T23:50:05.762Z,13.27
2023-05-19T23:55:08.333Z,13.28
